sensor_id;sensor_type;location;lat;lon;timestamp;P1;durP1;ratioP1;P2;durP2;ratioP2
52318;SDS011;38258;51.148;14.068;2024-02-28T00:01:59;54.80;;;14.50;;
52318;SDS011;38258;51.148;14.068;2024-02-28T00:04:26;56.15;;;13.20;;
52318;SDS011;38258;51.148;14.068;2024-02-28T00:06:54;42.88;;;13.48;;
52318;SDS011;38258;51.148;14.068;2024-02-28T00:09:21;47.72;;;13.60;;
52318;SDS011;38258;51.148;14.068;2024-02-28T00:11:47;50.75;;;14.40;;
52318;SDS011;38258;51.148;14.068;2024-02-28T00:14:14;48.60;;;12.88;;
52318;SDS011;38258;51.148;14.068;2024-02-28T00:16:41;51.45;;;13.13;;
52318;SDS011;38258;51.148;14.068;2024-02-28T00:19:08;46.80;;;13.68;;
52318;SDS011;38258;51.148;14.068;2024-02-28T00:21:36;45.55;;;13.57;;
52318;SDS011;38258;51.148;14.068;2024-02-28T00:24:04;49.13;;;12.82;;
52318;SDS011;38258;51.148;14.068;2024-02-28T00:26:31;48.53;;;12.40;;
52318;SDS011;38258;51.148;14.068;2024-02-28T00:28:58;52.33;;;12.90;;
52318;SDS011;38258;51.148;14.068;2024-02-28T00:31:25;50.50;;;12.57;;
52318;SDS011;38258;51.148;14.068;2024-02-28T00:33:51;44.15;;;11.60;;
52318;SDS011;38258;51.148;14.068;2024-02-28T00:36:18;47.47;;;13.05;;
52318;SDS011;38258;51.148;14.068;2024-02-28T00:38:45;44.47;;;11.40;;
52318;SDS011;38258;51.148;14.068;2024-02-28T00:41:13;53.25;;;13.18;;
52318;SDS011;38258;51.148;14.068;2024-02-28T00:43:40;40.40;;;11.43;;
52318;SDS011;38258;51.148;14.068;2024-02-28T00:46:06;36.17;;;11.63;;
52318;SDS011;38258;51.148;14.068;2024-02-28T00:48:36;37.42;;;11.48;;
52318;SDS011;38258;51.148;14.068;2024-02-28T00:51:03;56.00;;;11.38;;
52318;SDS011;38258;51.148;14.068;2024-02-28T00:53:30;43.38;;;11.75;;
52318;SDS011;38258;51.148;14.068;2024-02-28T00:55:56;39.17;;;11.38;;
52318;SDS011;38258;51.148;14.068;2024-02-28T00:58:24;51.30;;;12.90;;
52318;SDS011;38258;51.148;14.068;2024-02-28T01:00:53;42.65;;;11.40;;
52318;SDS011;38258;51.148;14.068;2024-02-28T01:03:19;38.63;;;10.13;;
52318;SDS011;38258;51.148;14.068;2024-02-28T01:05:46;46.75;;;11.23;;
52318;SDS011;38258;51.148;14.068;2024-02-28T01:08:15;40.60;;;11.35;;
52318;SDS011;38258;51.148;14.068;2024-02-28T01:10:42;36.88;;;10.38;;
52318;SDS011;38258;51.148;14.068;2024-02-28T01:13:09;32.17;;;10.18;;
52318;SDS011;38258;51.148;14.068;2024-02-28T01:15:38;33.88;;;10.07;;
52318;SDS011;38258;51.148;14.068;2024-02-28T01:18:05;31.80;;;10.63;;
52318;SDS011;38258;51.148;14.068;2024-02-28T01:20:32;40.47;;;10.95;;
52318;SDS011;38258;51.148;14.068;2024-02-28T01:22:59;34.45;;;9.52;;
52318;SDS011;38258;51.148;14.068;2024-02-28T01:25:25;34.83;;;10.68;;
52318;SDS011;38258;51.148;14.068;2024-02-28T01:27:52;32.67;;;9.93;;
52318;SDS011;38258;51.148;14.068;2024-02-28T01:30:19;29.65;;;9.63;;
52318;SDS011;38258;51.148;14.068;2024-02-28T01:32:47;32.08;;;9.48;;
52318;SDS011;38258;51.148;14.068;2024-02-28T01:35:14;30.25;;;9.30;;
52318;SDS011;38258;51.148;14.068;2024-02-28T01:37:40;37.10;;;9.45;;
52318;SDS011;38258;51.148;14.068;2024-02-28T01:40:07;36.90;;;10.30;;
52318;SDS011;38258;51.148;14.068;2024-02-28T01:42:35;31.35;;;9.43;;
52318;SDS011;38258;51.148;14.068;2024-02-28T01:45:02;28.75;;;8.75;;
52318;SDS011;38258;51.148;14.068;2024-02-28T01:47:29;31.30;;;9.43;;
52318;SDS011;38258;51.148;14.068;2024-02-28T01:49:57;26.63;;;9.85;;
52318;SDS011;38258;51.148;14.068;2024-02-28T01:52:25;29.63;;;8.85;;
52318;SDS011;38258;51.148;14.068;2024-02-28T01:54:53;32.22;;;9.00;;
52318;SDS011;38258;51.148;14.068;2024-02-28T01:57:20;24.17;;;8.27;;
52318;SDS011;38258;51.148;14.068;2024-02-28T01:59:47;26.73;;;7.35;;
52318;SDS011;38258;51.148;14.068;2024-02-28T02:02:14;28.05;;;8.93;;
52318;SDS011;38258;51.148;14.068;2024-02-28T02:04:41;29.63;;;8.70;;
52318;SDS011;38258;51.148;14.068;2024-02-28T02:07:09;27.60;;;8.90;;
52318;SDS011;38258;51.148;14.068;2024-02-28T02:09:36;33.92;;;9.65;;
52318;SDS011;38258;51.148;14.068;2024-02-28T02:12:02;34.83;;;10.15;;
52318;SDS011;38258;51.148;14.068;2024-02-28T02:14:29;33.30;;;9.50;;
52318;SDS011;38258;51.148;14.068;2024-02-28T02:16:56;30.10;;;9.05;;
52318;SDS011;38258;51.148;14.068;2024-02-28T02:19:22;27.55;;;8.75;;
52318;SDS011;38258;51.148;14.068;2024-02-28T02:21:50;31.30;;;9.25;;
52318;SDS011;38258;51.148;14.068;2024-02-28T02:24:21;29.80;;;8.77;;
52318;SDS011;38258;51.148;14.068;2024-02-28T02:26:47;32.10;;;8.82;;
52318;SDS011;38258;51.148;14.068;2024-02-28T02:29:17;29.67;;;9.15;;
52318;SDS011;38258;51.148;14.068;2024-02-28T02:31:44;28.70;;;9.18;;
52318;SDS011;38258;51.148;14.068;2024-02-28T02:34:10;33.10;;;9.30;;
52318;SDS011;38258;51.148;14.068;2024-02-28T02:36:37;29.13;;;9.00;;
52318;SDS011;38258;51.148;14.068;2024-02-28T02:39:04;32.78;;;9.55;;
52318;SDS011;38258;51.148;14.068;2024-02-28T02:41:34;26.52;;;8.88;;
52318;SDS011;38258;51.148;14.068;2024-02-28T02:44:01;31.25;;;9.27;;
52318;SDS011;38258;51.148;14.068;2024-02-28T02:46:27;41.63;;;9.52;;
52318;SDS011;38258;51.148;14.068;2024-02-28T02:48:54;50.88;;;10.73;;
52318;SDS011;38258;51.148;14.068;2024-02-28T02:51:21;55.83;;;10.52;;
52318;SDS011;38258;51.148;14.068;2024-02-28T02:53:48;35.50;;;10.20;;
52318;SDS011;38258;51.148;14.068;2024-02-28T02:56:14;41.92;;;9.25;;
52318;SDS011;38258;51.148;14.068;2024-02-28T02:58:42;58.05;;;9.77;;
52318;SDS011;38258;51.148;14.068;2024-02-28T03:01:09;41.33;;;9.40;;
52318;SDS011;38258;51.148;14.068;2024-02-28T03:03:36;39.50;;;8.57;;
52318;SDS011;38258;51.148;14.068;2024-02-28T03:06:03;41.75;;;9.57;;
52318;SDS011;38258;51.148;14.068;2024-02-28T03:08:31;35.08;;;8.63;;
52318;SDS011;38258;51.148;14.068;2024-02-28T03:10:58;28.25;;;9.15;;
52318;SDS011;38258;51.148;14.068;2024-02-28T03:13:24;34.75;;;8.88;;
52318;SDS011;38258;51.148;14.068;2024-02-28T03:15:52;32.38;;;9.10;;
52318;SDS011;38258;51.148;14.068;2024-02-28T03:18:19;30.00;;;9.23;;
52318;SDS011;38258;51.148;14.068;2024-02-28T03:20:46;50.67;;;10.15;;
52318;SDS011;38258;51.148;14.068;2024-02-28T03:23:12;45.25;;;10.52;;
52318;SDS011;38258;51.148;14.068;2024-02-28T03:25:39;55.60;;;10.55;;
52318;SDS011;38258;51.148;14.068;2024-02-28T03:28:06;38.70;;;9.02;;
52318;SDS011;38258;51.148;14.068;2024-02-28T03:30:32;39.40;;;10.13;;
52318;SDS011;38258;51.148;14.068;2024-02-28T03:33:00;40.10;;;8.70;;
52318;SDS011;38258;51.148;14.068;2024-02-28T03:35:27;36.75;;;9.93;;
52318;SDS011;38258;51.148;14.068;2024-02-28T03:37:54;30.60;;;9.25;;
52318;SDS011;38258;51.148;14.068;2024-02-28T03:40:20;36.35;;;8.77;;
52318;SDS011;38258;51.148;14.068;2024-02-28T03:42:47;33.85;;;9.63;;
52318;SDS011;38258;51.148;14.068;2024-02-28T03:45:14;30.70;;;9.32;;
52318;SDS011;38258;51.148;14.068;2024-02-28T03:47:41;31.52;;;8.98;;
52318;SDS011;38258;51.148;14.068;2024-02-28T03:50:09;31.30;;;10.02;;
52318;SDS011;38258;51.148;14.068;2024-02-28T03:52:35;33.80;;;8.90;;
52318;SDS011;38258;51.148;14.068;2024-02-28T03:55:02;30.10;;;10.02;;
52318;SDS011;38258;51.148;14.068;2024-02-28T03:57:29;33.03;;;9.90;;
52318;SDS011;38258;51.148;14.068;2024-02-28T03:59:56;27.10;;;9.50;;
52318;SDS011;38258;51.148;14.068;2024-02-28T04:02:23;32.00;;;10.00;;
52318;SDS011;38258;51.148;14.068;2024-02-28T04:04:49;27.13;;;9.45;;
52318;SDS011;38258;51.148;14.068;2024-02-28T04:07:17;27.80;;;8.77;;
52318;SDS011;38258;51.148;14.068;2024-02-28T04:09:44;26.70;;;8.52;;
52318;SDS011;38258;51.148;14.068;2024-02-28T04:12:11;25.67;;;8.35;;
52318;SDS011;38258;51.148;14.068;2024-02-28T04:14:37;34.97;;;8.45;;
52318;SDS011;38258;51.148;14.068;2024-02-28T04:17:04;31.90;;;9.77;;
52318;SDS011;38258;51.148;14.068;2024-02-28T04:19:32;28.05;;;9.52;;
52318;SDS011;38258;51.148;14.068;2024-02-28T04:22:01;31.13;;;9.10;;
52318;SDS011;38258;51.148;14.068;2024-02-28T04:24:29;30.13;;;8.93;;
52318;SDS011;38258;51.148;14.068;2024-02-28T04:26:57;32.78;;;9.20;;
52318;SDS011;38258;51.148;14.068;2024-02-28T04:29:24;26.80;;;8.85;;
52318;SDS011;38258;51.148;14.068;2024-02-28T04:31:51;28.33;;;9.32;;
52318;SDS011;38258;51.148;14.068;2024-02-28T04:34:18;29.83;;;9.27;;
52318;SDS011;38258;51.148;14.068;2024-02-28T04:36:44;28.33;;;8.57;;
52318;SDS011;38258;51.148;14.068;2024-02-28T04:39:11;23.98;;;8.65;;
52318;SDS011;38258;51.148;14.068;2024-02-28T04:41:39;25.23;;;8.13;;
52318;SDS011;38258;51.148;14.068;2024-02-28T04:44:06;25.92;;;8.55;;
52318;SDS011;38258;51.148;14.068;2024-02-28T04:46:33;25.17;;;7.95;;
52318;SDS011;38258;51.148;14.068;2024-02-28T04:49:00;24.13;;;8.30;;
52318;SDS011;38258;51.148;14.068;2024-02-28T04:51:27;23.48;;;7.50;;
52318;SDS011;38258;51.148;14.068;2024-02-28T04:53:53;21.23;;;7.22;;
52318;SDS011;38258;51.148;14.068;2024-02-28T04:56:20;24.05;;;7.28;;
52318;SDS011;38258;51.148;14.068;2024-02-28T04:58:48;22.05;;;7.30;;
52318;SDS011;38258;51.148;14.068;2024-02-28T05:01:14;21.67;;;7.40;;
52318;SDS011;38258;51.148;14.068;2024-02-28T05:03:41;19.85;;;7.47;;
52318;SDS011;38258;51.148;14.068;2024-02-28T05:06:08;17.02;;;6.57;;
52318;SDS011;38258;51.148;14.068;2024-02-28T05:08:37;20.00;;;6.30;;
52318;SDS011;38258;51.148;14.068;2024-02-28T05:11:04;15.27;;;5.88;;
52318;SDS011;38258;51.148;14.068;2024-02-28T05:13:31;18.20;;;6.82;;
52318;SDS011;38258;51.148;14.068;2024-02-28T05:15:59;17.00;;;6.28;;
52318;SDS011;38258;51.148;14.068;2024-02-28T05:18:26;17.75;;;6.13;;
52318;SDS011;38258;51.148;14.068;2024-02-28T05:20:52;16.05;;;6.18;;
52318;SDS011;38258;51.148;14.068;2024-02-28T05:23:20;16.15;;;6.15;;
52318;SDS011;38258;51.148;14.068;2024-02-28T05:25:46;18.02;;;6.05;;
52318;SDS011;38258;51.148;14.068;2024-02-28T05:28:13;13.25;;;5.75;;
52318;SDS011;38258;51.148;14.068;2024-02-28T05:30:40;15.48;;;6.07;;
52318;SDS011;38258;51.148;14.068;2024-02-28T05:33:08;15.57;;;5.72;;
52318;SDS011;38258;51.148;14.068;2024-02-28T05:35:36;15.23;;;6.15;;
52318;SDS011;38258;51.148;14.068;2024-02-28T05:38:03;13.95;;;5.35;;
52318;SDS011;38258;51.148;14.068;2024-02-28T05:40:30;18.20;;;5.78;;
52318;SDS011;38258;51.148;14.068;2024-02-28T05:42:56;19.75;;;6.28;;
52318;SDS011;38258;51.148;14.068;2024-02-28T05:45:23;18.83;;;6.28;;
52318;SDS011;38258;51.148;14.068;2024-02-28T05:47:50;18.27;;;6.05;;
52318;SDS011;38258;51.148;14.068;2024-02-28T05:50:18;18.70;;;6.20;;
52318;SDS011;38258;51.148;14.068;2024-02-28T05:52:44;19.10;;;6.57;;
52318;SDS011;38258;51.148;14.068;2024-02-28T05:55:11;20.00;;;6.63;;
52318;SDS011;38258;51.148;14.068;2024-02-28T05:57:38;22.00;;;7.60;;
52318;SDS011;38258;51.148;14.068;2024-02-28T06:00:05;19.08;;;6.72;;
52318;SDS011;38258;51.148;14.068;2024-02-28T06:02:36;19.73;;;7.22;;
52318;SDS011;38258;51.148;14.068;2024-02-28T06:05:03;31.15;;;7.75;;
52318;SDS011;38258;51.148;14.068;2024-02-28T06:07:32;29.63;;;8.20;;
52318;SDS011;38258;51.148;14.068;2024-02-28T06:09:59;22.05;;;8.07;;
52318;SDS011;38258;51.148;14.068;2024-02-28T06:12:26;23.67;;;7.95;;
52318;SDS011;38258;51.148;14.068;2024-02-28T06:14:52;19.75;;;7.13;;
52318;SDS011;38258;51.148;14.068;2024-02-28T06:17:20;19.13;;;6.47;;
52318;SDS011;38258;51.148;14.068;2024-02-28T06:19:46;29.77;;;7.82;;
52318;SDS011;38258;51.148;14.068;2024-02-28T06:22:13;20.75;;;6.90;;
52318;SDS011;38258;51.148;14.068;2024-02-28T06:24:41;26.98;;;7.05;;
52318;SDS011;38258;51.148;14.068;2024-02-28T06:27:08;22.30;;;7.18;;
52318;SDS011;38258;51.148;14.068;2024-02-28T06:29:37;23.88;;;7.55;;
52318;SDS011;38258;51.148;14.068;2024-02-28T06:32:04;21.75;;;6.75;;
52318;SDS011;38258;51.148;14.068;2024-02-28T06:34:31;22.70;;;7.40;;
52318;SDS011;38258;51.148;14.068;2024-02-28T06:36:57;26.67;;;8.20;;
52318;SDS011;38258;51.148;14.068;2024-02-28T06:39:24;23.27;;;8.63;;
52318;SDS011;38258;51.148;14.068;2024-02-28T06:41:52;23.42;;;7.57;;
52318;SDS011;38258;51.148;14.068;2024-02-28T06:44:19;26.33;;;8.70;;
52318;SDS011;38258;51.148;14.068;2024-02-28T06:46:46;26.35;;;7.85;;
52318;SDS011;38258;51.148;14.068;2024-02-28T06:49:13;30.05;;;9.18;;
52318;SDS011;38258;51.148;14.068;2024-02-28T06:51:39;23.05;;;8.13;;
52318;SDS011;38258;51.148;14.068;2024-02-28T06:54:06;28.70;;;8.88;;
52318;SDS011;38258;51.148;14.068;2024-02-28T06:56:33;26.17;;;8.20;;
52318;SDS011;38258;51.148;14.068;2024-02-28T06:59:00;28.23;;;8.57;;
52318;SDS011;38258;51.148;14.068;2024-02-28T07:01:29;31.25;;;9.18;;
52318;SDS011;38258;51.148;14.068;2024-02-28T07:03:55;25.23;;;8.20;;
52318;SDS011;38258;51.148;14.068;2024-02-28T07:06:22;36.67;;;9.10;;
52318;SDS011;38258;51.148;14.068;2024-02-28T07:08:49;28.25;;;8.70;;
52318;SDS011;38258;51.148;14.068;2024-02-28T07:11:15;26.30;;;8.27;;
52318;SDS011;38258;51.148;14.068;2024-02-28T07:13:42;27.30;;;8.55;;
52318;SDS011;38258;51.148;14.068;2024-02-28T07:16:10;23.10;;;8.63;;
52318;SDS011;38258;51.148;14.068;2024-02-28T07:18:37;26.35;;;9.20;;
52318;SDS011;38258;51.148;14.068;2024-02-28T07:21:03;30.90;;;9.82;;
52318;SDS011;38258;51.148;14.068;2024-02-28T07:23:32;25.90;;;8.32;;
52318;SDS011;38258;51.148;14.068;2024-02-28T07:25:58;25.20;;;8.18;;
52318;SDS011;38258;51.148;14.068;2024-02-28T07:28:25;41.42;;;8.55;;
52318;SDS011;38258;51.148;14.068;2024-02-28T07:30:52;37.35;;;8.73;;
52318;SDS011;38258;51.148;14.068;2024-02-28T07:33:20;33.97;;;7.32;;
52318;SDS011;38258;51.148;14.068;2024-02-28T07:35:46;28.05;;;8.18;;
52318;SDS011;38258;51.148;14.068;2024-02-28T07:38:13;35.75;;;9.07;;
52318;SDS011;38258;51.148;14.068;2024-02-28T07:40:41;26.92;;;11.05;;
52318;SDS011;38258;51.148;14.068;2024-02-28T07:43:08;37.58;;;12.05;;
52318;SDS011;38258;51.148;14.068;2024-02-28T07:45:34;34.53;;;10.73;;
52318;SDS011;38258;51.148;14.068;2024-02-28T07:48:01;60.80;;;10.88;;
52318;SDS011;38258;51.148;14.068;2024-02-28T07:50:29;32.97;;;9.88;;
52318;SDS011;38258;51.148;14.068;2024-02-28T07:52:56;36.55;;;9.98;;
52318;SDS011;38258;51.148;14.068;2024-02-28T07:55:23;42.30;;;11.20;;
52318;SDS011;38258;51.148;14.068;2024-02-28T07:57:50;41.20;;;12.50;;
52318;SDS011;38258;51.148;14.068;2024-02-28T08:00:17;42.85;;;11.38;;
52318;SDS011;38258;51.148;14.068;2024-02-28T08:02:45;37.95;;;12.50;;
52318;SDS011;38258;51.148;14.068;2024-02-28T08:05:12;42.42;;;11.25;;
52318;SDS011;38258;51.148;14.068;2024-02-28T08:07:41;56.17;;;14.88;;
52318;SDS011;38258;51.148;14.068;2024-02-28T08:10:08;47.47;;;15.60;;
52318;SDS011;38258;51.148;14.068;2024-02-28T08:12:36;53.58;;;18.17;;
52318;SDS011;38258;51.148;14.068;2024-02-28T08:15:03;27.02;;;9.63;;
52318;SDS011;38258;51.148;14.068;2024-02-28T08:17:30;45.30;;;12.18;;
52318;SDS011;38258;51.148;14.068;2024-02-28T08:19:57;35.95;;;13.07;;
52318;SDS011;38258;51.148;14.068;2024-02-28T08:22:24;35.78;;;13.48;;
52318;SDS011;38258;51.148;14.068;2024-02-28T08:24:52;40.70;;;14.73;;
52318;SDS011;38258;51.148;14.068;2024-02-28T08:27:18;28.83;;;9.63;;
52318;SDS011;38258;51.148;14.068;2024-02-28T08:29:46;34.80;;;10.23;;
52318;SDS011;38258;51.148;14.068;2024-02-28T08:32:12;32.00;;;9.45;;
52318;SDS011;38258;51.148;14.068;2024-02-28T08:34:43;23.52;;;7.43;;
52318;SDS011;38258;51.148;14.068;2024-02-28T08:37:10;20.60;;;8.48;;
52318;SDS011;38258;51.148;14.068;2024-02-28T08:39:37;42.60;;;16.55;;
52318;SDS011;38258;51.148;14.068;2024-02-28T08:42:05;26.13;;;8.98;;
52318;SDS011;38258;51.148;14.068;2024-02-28T08:44:32;26.63;;;10.02;;
52318;SDS011;38258;51.148;14.068;2024-02-28T08:46:59;25.42;;;8.68;;
52318;SDS011;38258;51.148;14.068;2024-02-28T08:49:25;22.90;;;8.25;;
52318;SDS011;38258;51.148;14.068;2024-02-28T08:51:52;20.17;;;7.35;;
52318;SDS011;38258;51.148;14.068;2024-02-28T08:54:18;24.48;;;9.50;;
52318;SDS011;38258;51.148;14.068;2024-02-28T08:56:45;31.33;;;10.63;;
52318;SDS011;38258;51.148;14.068;2024-02-28T08:59:13;19.88;;;8.48;;
52318;SDS011;38258;51.148;14.068;2024-02-28T09:01:40;28.25;;;9.35;;
52318;SDS011;38258;51.148;14.068;2024-02-28T09:04:07;18.52;;;7.00;;
52318;SDS011;38258;51.148;14.068;2024-02-28T09:06:34;22.65;;;7.50;;
52318;SDS011;38258;51.148;14.068;2024-02-28T09:09:00;20.60;;;7.30;;
52318;SDS011;38258;51.148;14.068;2024-02-28T09:11:27;28.45;;;8.77;;
52318;SDS011;38258;51.148;14.068;2024-02-28T09:13:54;33.33;;;10.18;;
52318;SDS011;38258;51.148;14.068;2024-02-28T09:16:22;24.48;;;9.70;;
52318;SDS011;38258;51.148;14.068;2024-02-28T09:18:48;35.42;;;8.55;;
52318;SDS011;38258;51.148;14.068;2024-02-28T09:21:15;19.20;;;7.47;;
52318;SDS011;38258;51.148;14.068;2024-02-28T09:23:42;22.65;;;7.70;;
52318;SDS011;38258;51.148;14.068;2024-02-28T09:26:08;26.17;;;8.80;;
52318;SDS011;38258;51.148;14.068;2024-02-28T09:28:35;24.38;;;8.65;;
52318;SDS011;38258;51.148;14.068;2024-02-28T09:31:02;24.95;;;9.55;;
52318;SDS011;38258;51.148;14.068;2024-02-28T09:33:31;22.52;;;8.07;;
52318;SDS011;38258;51.148;14.068;2024-02-28T09:35:57;22.95;;;8.60;;
52318;SDS011;38258;51.148;14.068;2024-02-28T09:38:24;23.30;;;9.60;;
52318;SDS011;38258;51.148;14.068;2024-02-28T09:40:51;20.83;;;7.80;;
52318;SDS011;38258;51.148;14.068;2024-02-28T09:43:19;19.80;;;7.43;;
52318;SDS011;38258;51.148;14.068;2024-02-28T09:45:52;16.63;;;6.32;;
52318;SDS011;38258;51.148;14.068;2024-02-28T09:48:23;18.27;;;6.30;;
52318;SDS011;38258;51.148;14.068;2024-02-28T09:50:53;19.63;;;8.15;;
52318;SDS011;38258;51.148;14.068;2024-02-28T09:53:20;19.30;;;8.07;;
52318;SDS011;38258;51.148;14.068;2024-02-28T09:55:47;20.35;;;8.07;;
52318;SDS011;38258;51.148;14.068;2024-02-28T09:58:17;19.30;;;8.20;;
52318;SDS011;38258;51.148;14.068;2024-02-28T10:00:45;20.67;;;7.95;;
52318;SDS011;38258;51.148;14.068;2024-02-28T10:03:13;20.02;;;7.60;;
52318;SDS011;38258;51.148;14.068;2024-02-28T10:05:44;20.85;;;8.38;;
52318;SDS011;38258;51.148;14.068;2024-02-28T10:08:13;21.70;;;8.43;;
52318;SDS011;38258;51.148;14.068;2024-02-28T10:10:44;21.77;;;8.55;;
52318;SDS011;38258;51.148;14.068;2024-02-28T10:13:12;20.23;;;7.88;;
52318;SDS011;38258;51.148;14.068;2024-02-28T10:15:39;21.45;;;8.05;;
52318;SDS011;38258;51.148;14.068;2024-02-28T10:18:05;20.30;;;7.90;;
52318;SDS011;38258;51.148;14.068;2024-02-28T10:20:33;20.60;;;7.85;;
52318;SDS011;38258;51.148;14.068;2024-02-28T10:23:03;20.52;;;7.53;;
52318;SDS011;38258;51.148;14.068;2024-02-28T10:25:31;18.23;;;7.50;;
52318;SDS011;38258;51.148;14.068;2024-02-28T10:27:59;23.73;;;7.20;;
52318;SDS011;38258;51.148;14.068;2024-02-28T10:30:26;21.70;;;7.82;;
52318;SDS011;38258;51.148;14.068;2024-02-28T10:32:53;17.77;;;6.40;;
52318;SDS011;38258;51.148;14.068;2024-02-28T10:35:21;19.08;;;6.50;;
52318;SDS011;38258;51.148;14.068;2024-02-28T10:37:51;18.65;;;7.00;;
52318;SDS011;38258;51.148;14.068;2024-02-28T10:40:20;17.70;;;7.18;;
52318;SDS011;38258;51.148;14.068;2024-02-28T10:42:48;19.23;;;6.80;;
52318;SDS011;38258;51.148;14.068;2024-02-28T10:45:16;17.25;;;5.68;;
52318;SDS011;38258;51.148;14.068;2024-02-28T10:47:43;15.32;;;6.40;;
52318;SDS011;38258;51.148;14.068;2024-02-28T10:50:11;17.98;;;6.57;;
52318;SDS011;38258;51.148;14.068;2024-02-28T10:52:43;18.23;;;6.97;;
52318;SDS011;38258;51.148;14.068;2024-02-28T10:55:12;15.27;;;6.63;;
52318;SDS011;38258;51.148;14.068;2024-02-28T10:57:42;18.50;;;6.93;;
52318;SDS011;38258;51.148;14.068;2024-02-28T11:00:13;17.80;;;6.63;;
52318;SDS011;38258;51.148;14.068;2024-02-28T11:02:42;20.60;;;7.20;;
52318;SDS011;38258;51.148;14.068;2024-02-28T11:05:09;13.80;;;5.85;;
52318;SDS011;38258;51.148;14.068;2024-02-28T11:07:40;16.50;;;6.28;;
52318;SDS011;38258;51.148;14.068;2024-02-28T11:10:11;15.65;;;5.97;;
52318;SDS011;38258;51.148;14.068;2024-02-28T11:12:38;16.75;;;6.97;;
52318;SDS011;38258;51.148;14.068;2024-02-28T11:15:05;20.20;;;8.15;;
52318;SDS011;38258;51.148;14.068;2024-02-28T11:17:43;20.35;;;7.55;;
52318;SDS011;38258;51.148;14.068;2024-02-28T11:20:13;19.20;;;7.03;;
52318;SDS011;38258;51.148;14.068;2024-02-28T11:22:40;20.05;;;7.55;;
52318;SDS011;38258;51.148;14.068;2024-02-28T11:25:07;21.95;;;8.65;;
52318;SDS011;38258;51.148;14.068;2024-02-28T11:27:44;23.13;;;8.80;;
52318;SDS011;38258;51.148;14.068;2024-02-28T11:30:12;21.25;;;7.90;;
52318;SDS011;38258;51.148;14.068;2024-02-28T11:32:39;22.00;;;9.35;;
52318;SDS011;38258;51.148;14.068;2024-02-28T11:35:08;21.63;;;8.88;;
52318;SDS011;38258;51.148;14.068;2024-02-28T11:37:34;18.88;;;8.48;;
52318;SDS011;38258;51.148;14.068;2024-02-28T11:40:01;16.58;;;7.50;;
52318;SDS011;38258;51.148;14.068;2024-02-28T11:42:28;19.30;;;8.45;;
52318;SDS011;38258;51.148;14.068;2024-02-28T11:44:55;16.80;;;6.90;;
52318;SDS011;38258;51.148;14.068;2024-02-28T11:47:23;20.80;;;8.52;;
52318;SDS011;38258;51.148;14.068;2024-02-28T11:49:49;20.00;;;8.38;;
52318;SDS011;38258;51.148;14.068;2024-02-28T11:52:17;17.92;;;7.25;;
52318;SDS011;38258;51.148;14.068;2024-02-28T11:54:44;15.10;;;6.18;;
52318;SDS011;38258;51.148;14.068;2024-02-28T11:57:11;16.45;;;7.13;;
52318;SDS011;38258;51.148;14.068;2024-02-28T11:59:43;16.25;;;6.53;;
52318;SDS011;38258;51.148;14.068;2024-02-28T12:02:13;14.43;;;6.15;;
52318;SDS011;38258;51.148;14.068;2024-02-28T12:04:40;14.85;;;6.03;;
52318;SDS011;38258;51.148;14.068;2024-02-28T12:07:08;15.82;;;6.38;;
52318;SDS011;38258;51.148;14.068;2024-02-28T12:09:36;15.10;;;6.65;;
52318;SDS011;38258;51.148;14.068;2024-02-28T12:12:04;17.45;;;7.30;;
52318;SDS011;38258;51.148;14.068;2024-02-28T12:14:36;15.85;;;6.88;;
52318;SDS011;38258;51.148;14.068;2024-02-28T12:17:03;15.60;;;6.85;;
52318;SDS011;38258;51.148;14.068;2024-02-28T12:19:30;16.85;;;6.75;;
52318;SDS011;38258;51.148;14.068;2024-02-28T12:21:57;16.00;;;6.93;;
52318;SDS011;38258;51.148;14.068;2024-02-28T12:24:24;20.00;;;8.82;;
52318;SDS011;38258;51.148;14.068;2024-02-28T12:26:52;17.50;;;6.85;;
52318;SDS011;38258;51.148;14.068;2024-02-28T12:29:19;16.30;;;6.22;;
52318;SDS011;38258;51.148;14.068;2024-02-28T12:31:46;17.92;;;7.07;;
52318;SDS011;38258;51.148;14.068;2024-02-28T12:34:13;21.70;;;7.85;;
52318;SDS011;38258;51.148;14.068;2024-02-28T12:36:40;17.00;;;6.70;;
52318;SDS011;38258;51.148;14.068;2024-02-28T12:39:07;15.63;;;6.25;;
52318;SDS011;38258;51.148;14.068;2024-02-28T12:41:36;19.05;;;7.35;;
52318;SDS011;38258;51.148;14.068;2024-02-28T12:44:04;18.63;;;7.35;;
52318;SDS011;38258;51.148;14.068;2024-02-28T12:46:31;19.27;;;8.75;;
52318;SDS011;38258;51.148;14.068;2024-02-28T12:48:59;19.63;;;7.65;;
52318;SDS011;38258;51.148;14.068;2024-02-28T12:51:35;21.48;;;8.05;;
52318;SDS011;38258;51.148;14.068;2024-02-28T12:54:03;20.25;;;7.25;;
52318;SDS011;38258;51.148;14.068;2024-02-28T12:56:30;17.75;;;7.47;;
52318;SDS011;38258;51.148;14.068;2024-02-28T12:58:57;19.17;;;7.80;;
52318;SDS011;38258;51.148;14.068;2024-02-28T13:01:25;21.35;;;7.75;;
52318;SDS011;38258;51.148;14.068;2024-02-28T13:03:52;18.42;;;7.35;;
52318;SDS011;38258;51.148;14.068;2024-02-28T13:06:19;23.98;;;8.32;;
52318;SDS011;38258;51.148;14.068;2024-02-28T13:08:46;23.55;;;8.63;;
52318;SDS011;38258;51.148;14.068;2024-02-28T13:11:17;20.80;;;8.15;;
52318;SDS011;38258;51.148;14.068;2024-02-28T13:13:44;22.33;;;8.77;;
52318;SDS011;38258;51.148;14.068;2024-02-28T13:16:11;26.67;;;9.40;;
52318;SDS011;38258;51.148;14.068;2024-02-28T13:18:39;25.88;;;9.00;;
52318;SDS011;38258;51.148;14.068;2024-02-28T13:21:06;24.50;;;10.00;;
52318;SDS011;38258;51.148;14.068;2024-02-28T13:23:32;21.25;;;8.65;;
52318;SDS011;38258;51.148;14.068;2024-02-28T13:25:59;26.67;;;9.70;;
52318;SDS011;38258;51.148;14.068;2024-02-28T13:28:26;28.88;;;9.57;;
52318;SDS011;38258;51.148;14.068;2024-02-28T13:30:55;22.20;;;8.55;;
52318;SDS011;38258;51.148;14.068;2024-02-28T13:33:22;24.58;;;9.05;;
52318;SDS011;38258;51.148;14.068;2024-02-28T13:35:50;26.67;;;9.82;;
52318;SDS011;38258;51.148;14.068;2024-02-28T13:38:16;20.10;;;8.80;;
52318;SDS011;38258;51.148;14.068;2024-02-28T13:40:44;22.35;;;8.55;;
52318;SDS011;38258;51.148;14.068;2024-02-28T13:43:11;25.67;;;9.98;;
52318;SDS011;38258;51.148;14.068;2024-02-28T13:45:38;22.70;;;8.65;;
52318;SDS011;38258;51.148;14.068;2024-02-28T13:48:14;24.45;;;9.10;;
52318;SDS011;38258;51.148;14.068;2024-02-28T13:50:43;26.77;;;9.93;;
52318;SDS011;38258;51.148;14.068;2024-02-28T13:53:12;24.20;;;9.60;;
52318;SDS011;38258;51.148;14.068;2024-02-28T13:55:40;25.85;;;9.10;;
52318;SDS011;38258;51.148;14.068;2024-02-28T13:58:07;26.38;;;10.02;;
52318;SDS011;38258;51.148;14.068;2024-02-28T14:00:36;28.55;;;10.63;;
52318;SDS011;38258;51.148;14.068;2024-02-28T14:03:03;31.27;;;12.07;;
52318;SDS011;38258;51.148;14.068;2024-02-28T14:05:31;24.65;;;10.18;;
52318;SDS011;38258;51.148;14.068;2024-02-28T14:07:58;32.72;;;12.10;;
52318;SDS011;38258;51.148;14.068;2024-02-28T14:10:26;28.23;;;10.40;;
52318;SDS011;38258;51.148;14.068;2024-02-28T14:12:53;29.35;;;11.40;;
52318;SDS011;38258;51.148;14.068;2024-02-28T14:15:20;30.45;;;11.63;;
52318;SDS011;38258;51.148;14.068;2024-02-28T14:17:47;29.25;;;10.77;;
52318;SDS011;38258;51.148;14.068;2024-02-28T14:20:14;29.50;;;10.80;;